sensor_id;sensor_type;location;lat;lon;timestamp;temperature;humidity
15922;DHT22;8060;50.948;3.146;2022-08-19T05:40:05;18.60;99.90
15922;DHT22;8060;50.948;3.146;2022-08-19T05:42:33;18.50;99.90
15922;DHT22;8060;50.948;3.146;2022-08-19T05:45:02;18.60;99.90
15922;DHT22;8060;50.948;3.146;2022-08-19T05:47:31;18.70;99.90
15922;DHT22;8060;50.948;3.146;2022-08-19T05:49:59;18.90;99.90
15922;DHT22;8060;50.948;3.146;2022-08-19T05:52:30;19.00;99.90
15922;DHT22;8060;50.948;3.146;2022-08-19T05:54:59;19.10;99.90
15922;DHT22;8060;50.948;3.146;2022-08-19T05:57:28;19.20;99.90
15922;DHT22;8060;50.948;3.146;2022-08-19T05:59:57;19.30;99.90
15922;DHT22;8060;50.948;3.146;2022-08-19T06:02:27;19.30;99.90
15922;DHT22;8060;50.948;3.146;2022-08-19T06:04:57;19.40;99.90
15922;DHT22;8060;50.948;3.146;2022-08-19T06:07:25;19.40;99.90
15922;DHT22;8060;50.948;3.146;2022-08-19T06:09:54;19.50;99.90
15922;DHT22;8060;50.948;3.146;2022-08-19T06:12:28;19.60;99.90
15922;DHT22;8060;50.948;3.146;2022-08-19T06:15:00;19.60;99.90
15922;DHT22;8060;50.948;3.146;2022-08-19T06:17:29;19.60;99.90
15922;DHT22;8060;50.948;3.146;2022-08-19T06:19:58;19.60;99.90
15922;DHT22;8060;50.948;3.146;2022-08-19T06:22:27;19.60;99.90
15922;DHT22;8060;50.948;3.146;2022-08-19T06:24:55;19.70;99.90
15922;DHT22;8060;50.948;3.146;2022-08-19T06:27:24;19.70;99.90
15922;DHT22;8060;50.948;3.146;2022-08-19T06:29:53;19.70;99.90
15922;DHT22;8060;50.948;3.146;2022-08-19T06:32:21;19.80;99.90
15922;DHT22;8060;50.948;3.146;2022-08-19T06:34:50;19.80;99.90
15922;DHT22;8060;50.948;3.146;2022-08-19T06:37:18;19.80;99.90
15922;DHT22;8060;50.948;3.146;2022-08-19T06:39:48;19.80;99.90
15922;DHT22;8060;50.948;3.146;2022-08-19T06:42:17;19.90;99.90
15922;DHT22;8060;50.948;3.146;2022-08-19T06:44:48;19.90;99.90
15922;DHT22;8060;50.948;3.146;2022-08-19T06:47:21;20.00;99.90
15922;DHT22;8060;50.948;3.146;2022-08-19T06:49:55;20.00;99.90
15922;DHT22;8060;50.948;3.146;2022-08-19T06:52:29;20.00;99.90
15922;DHT22;8060;50.948;3.146;2022-08-19T06:55:00;20.00;99.90
15922;DHT22;8060;50.948;3.146;2022-08-19T06:57:33;20.10;99.90
15922;DHT22;8060;50.948;3.146;2022-08-19T07:00:02;20.10;99.90
15922;DHT22;8060;50.948;3.146;2022-08-19T07:02:34;20.10;99.90
15922;DHT22;8060;50.948;3.146;2022-08-19T07:05:05;20.10;99.90
15922;DHT22;8060;50.948;3.146;2022-08-19T07:07:33;20.20;99.90
15922;DHT22;8060;50.948;3.146;2022-08-19T07:10:03;20.10;99.90
15922;DHT22;8060;50.948;3.146;2022-08-19T07:12:33;20.20;99.90
15922;DHT22;8060;50.948;3.146;2022-08-19T07:15:04;20.20;99.90
15922;DHT22;8060;50.948;3.146;2022-08-19T07:17:36;20.10;99.90
15922;DHT22;8060;50.948;3.146;2022-08-19T07:20:09;20.10;99.90
15922;DHT22;8060;50.948;3.146;2022-08-19T07:22:37;20.20;99.90
15922;DHT22;8060;50.948;3.146;2022-08-19T07:25:07;20.20;99.90
15922;DHT22;8060;50.948;3.146;2022-08-19T07:27:36;20.20;99.90
15922;DHT22;8060;50.948;3.146;2022-08-19T07:30:06;20.20;99.90
15922;DHT22;8060;50.948;3.146;2022-08-19T07:32:39;20.30;99.90
15922;DHT22;8060;50.948;3.146;2022-08-19T07:35:09;20.30;99.90
15922;DHT22;8060;50.948;3.146;2022-08-19T07:37:37;20.40;99.90
15922;DHT22;8060;50.948;3.146;2022-08-19T07:40:11;20.40;99.90
15922;DHT22;8060;50.948;3.146;2022-08-19T07:42:40;20.50;99.90
15922;DHT22;8060;50.948;3.146;2022-08-19T07:45:09;20.50;99.90
15922;DHT22;8060;50.948;3.146;2022-08-19T07:47:39;20.50;99.90
15922;DHT22;8060;50.948;3.146;2022-08-19T07:50:17;20.50;99.90
15922;DHT22;8060;50.948;3.146;2022-08-19T07:52:47;20.60;99.90
15922;DHT22;8060;50.948;3.146;2022-08-19T07:55:18;20.70;99.90
15922;DHT22;8060;50.948;3.146;2022-08-19T07:58:07;20.70;99.90
15922;DHT22;8060;50.948;3.146;2022-08-19T08:00:36;20.80;99.90
15922;DHT22;8060;50.948;3.146;2022-08-19T08:03:05;20.80;99.90
15922;DHT22;8060;50.948;3.146;2022-08-19T08:05:35;20.90;99.90
15922;DHT22;8060;50.948;3.146;2022-08-19T08:08:26;20.80;99.90
15922;DHT22;8060;50.948;3.146;2022-08-19T08:11:16;20.90;99.90
15922;DHT22;8060;50.948;3.146;2022-08-19T08:13:47;21.00;99.90
15922;DHT22;8060;50.948;3.146;2022-08-19T08:16:31;21.10;99.90
15922;DHT22;8060;50.948;3.146;2022-08-19T08:19:07;21.30;99.90
15922;DHT22;8060;50.948;3.146;2022-08-19T08:21:51;21.30;99.90
15922;DHT22;8060;50.948;3.146;2022-08-19T08:24:20;21.40;99.90
15922;DHT22;8060;50.948;3.146;2022-08-19T08:26:54;21.50;99.90
15922;DHT22;8060;50.948;3.146;2022-08-19T08:29:23;21.60;99.90
15922;DHT22;8060;50.948;3.146;2022-08-19T08:32:00;21.80;99.90
15922;DHT22;8060;50.948;3.146;2022-08-19T08:34:30;21.80;99.90
15922;DHT22;8060;50.948;3.146;2022-08-19T08:36:58;21.80;99.90
15922;DHT22;8060;50.948;3.146;2022-08-19T08:39:26;21.80;99.90
15922;DHT22;8060;50.948;3.146;2022-08-19T08:42:01;21.90;99.90
15922;DHT22;8060;50.948;3.146;2022-08-19T08:44:43;21.90;99.90
15922;DHT22;8060;50.948;3.146;2022-08-19T08:47:19;22.00;99.90
15922;DHT22;8060;50.948;3.146;2022-08-19T08:49:52;22.00;99.90
15922;DHT22;8060;50.948;3.146;2022-08-19T08:52:24;22.10;99.90
15922;DHT22;8060;50.948;3.146;2022-08-19T08:55:03;22.10;99.90
15922;DHT22;8060;50.948;3.146;2022-08-19T08:57:39;22.20;99.90
15922;DHT22;8060;50.948;3.146;2022-08-19T09:00:18;22.30;99.90
15922;DHT22;8060;50.948;3.146;2022-08-19T09:02:47;22.40;99.90
15922;DHT22;8060;50.948;3.146;2022-08-19T09:05:19;22.40;99.90
15922;DHT22;8060;50.948;3.146;2022-08-19T09:08:00;22.60;99.90
15922;DHT22;8060;50.948;3.146;2022-08-19T09:10:33;22.60;99.90
15922;DHT22;8060;50.948;3.146;2022-08-19T09:13:18;22.70;99.90
15922;DHT22;8060;50.948;3.146;2022-08-19T09:15:52;22.80;99.90
15922;DHT22;8060;50.948;3.146;2022-08-19T09:18:22;22.80;99.90
15922;DHT22;8060;50.948;3.146;2022-08-19T09:20:56;22.80;99.90
15922;DHT22;8060;50.948;3.146;2022-08-19T09:23:25;22.70;99.90
15922;DHT22;8060;50.948;3.146;2022-08-19T09:25:53;22.60;99.90
15922;DHT22;8060;50.948;3.146;2022-08-19T09:28:21;22.50;99.90
15922;DHT22;8060;50.948;3.146;2022-08-19T09:30:53;22.50;99.90
15922;DHT22;8060;50.948;3.146;2022-08-19T09:33:21;22.40;99.90
15922;DHT22;8060;50.948;3.146;2022-08-19T09:35:49;22.40;99.90
15922;DHT22;8060;50.948;3.146;2022-08-19T09:38:20;22.40;99.90
15922;DHT22;8060;50.948;3.146;2022-08-19T09:40:51;22.40;99.90
15922;DHT22;8060;50.948;3.146;2022-08-19T09:43:20;22.40;99.90
15922;DHT22;8060;50.948;3.146;2022-08-19T09:45:59;22.30;99.90
15922;DHT22;8060;50.948;3.146;2022-08-19T09:48:28;22.30;99.90
15922;DHT22;8060;50.948;3.146;2022-08-19T09:51:03;22.20;99.90
15922;DHT22;8060;50.948;3.146;2022-08-19T09:53:32;22.20;99.90
15922;DHT22;8060;50.948;3.146;2022-08-19T09:56:04;22.20;99.90
15922;DHT22;8060;50.948;3.146;2022-08-19T09:58:34;22.30;99.90
15922;DHT22;8060;50.948;3.146;2022-08-19T10:01:03;22.40;99.90
15922;DHT22;8060;50.948;3.146;2022-08-19T10:03:33;22.60;99.90
15922;DHT22;8060;50.948;3.146;2022-08-19T10:06:04;22.80;99.90
15922;DHT22;8060;50.948;3.146;2022-08-19T10:08:45;23.00;99.90
15922;DHT22;8060;50.948;3.146;2022-08-19T10:11:17;23.20;99.90
15922;DHT22;8060;50.948;3.146;2022-08-19T10:13:53;23.40;99.90
15922;DHT22;8060;50.948;3.146;2022-08-19T10:16:22;23.50;99.90
15922;DHT22;8060;50.948;3.146;2022-08-19T10:18:56;23.50;99.90
15922;DHT22;8060;50.948;3.146;2022-08-19T10:21:27;23.60;99.90
15922;DHT22;8060;50.948;3.146;2022-08-19T10:24:01;23.60;99.90
15922;DHT22;8060;50.948;3.146;2022-08-19T10:26:33;23.60;99.90
15922;DHT22;8060;50.948;3.146;2022-08-19T10:29:02;23.60;99.90
15922;DHT22;8060;50.948;3.146;2022-08-19T10:31:35;23.60;99.90
15922;DHT22;8060;50.948;3.146;2022-08-19T10:34:23;23.60;99.90
15922;DHT22;8060;50.948;3.146;2022-08-19T10:36:54;23.60;99.90
15922;DHT22;8060;50.948;3.146;2022-08-19T10:39:30;23.60;99.90
15922;DHT22;8060;50.948;3.146;2022-08-19T10:42:09;23.60;99.90
15922;DHT22;8060;50.948;3.146;2022-08-19T10:44:40;23.50;99.90
15922;DHT22;8060;50.948;3.146;2022-08-19T10:47:08;23.50;99.90
15922;DHT22;8060;50.948;3.146;2022-08-19T10:49:52;23.60;99.90
15922;DHT22;8060;50.948;3.146;2022-08-19T10:52:39;23.80;99.90
15922;DHT22;8060;50.948;3.146;2022-08-19T10:55:18;23.90;99.90
15922;DHT22;8060;50.948;3.146;2022-08-19T10:58:10;23.80;99.90
15922;DHT22;8060;50.948;3.146;2022-08-19T11:00:38;23.90;99.90
15922;DHT22;8060;50.948;3.146;2022-08-19T11:03:07;24.00;99.90
15922;DHT22;8060;50.948;3.146;2022-08-19T11:05:35;24.00;99.90
15922;DHT22;8060;50.948;3.146;2022-08-19T11:08:06;24.00;99.90
15922;DHT22;8060;50.948;3.146;2022-08-19T11:10:51;23.90;99.90
15922;DHT22;8060;50.948;3.146;2022-08-19T11:13:26;24.00;99.90
15922;DHT22;8060;50.948;3.146;2022-08-19T11:15:58;23.90;99.90
15922;DHT22;8060;50.948;3.146;2022-08-19T11:18:33;23.90;99.90
15922;DHT22;8060;50.948;3.146;2022-08-19T11:21:09;23.90;99.90
15922;DHT22;8060;50.948;3.146;2022-08-19T11:23:38;24.00;99.90
15922;DHT22;8060;50.948;3.146;2022-08-19T11:26:07;24.10;99.90
15922;DHT22;8060;50.948;3.146;2022-08-19T11:28:36;24.30;99.90
15922;DHT22;8060;50.948;3.146;2022-08-19T11:31:04;24.50;99.90
15922;DHT22;8060;50.948;3.146;2022-08-19T11:33:36;24.60;99.90
15922;DHT22;8060;50.948;3.146;2022-08-19T11:36:05;24.60;99.90
15922;DHT22;8060;50.948;3.146;2022-08-19T11:38:34;24.70;99.90
15922;DHT22;8060;50.948;3.146;2022-08-19T11:41:05;24.60;99.90
15922;DHT22;8060;50.948;3.146;2022-08-19T11:43:35;24.50;99.90
15922;DHT22;8060;50.948;3.146;2022-08-19T11:46:05;24.50;99.90
15922;DHT22;8060;50.948;3.146;2022-08-19T11:48:35;24.50;99.90
15922;DHT22;8060;50.948;3.146;2022-08-19T11:51:05;24.40;99.90
15922;DHT22;8060;50.948;3.146;2022-08-19T11:53:33;24.10;99.90
15922;DHT22;8060;50.948;3.146;2022-08-19T11:56:03;23.90;99.90
15922;DHT22;8060;50.948;3.146;2022-08-19T11:58:32;23.70;99.90
15922;DHT22;8060;50.948;3.146;2022-08-19T12:01:05;23.50;99.90
15922;DHT22;8060;50.948;3.146;2022-08-19T12:03:33;23.40;99.90
15922;DHT22;8060;50.948;3.146;2022-08-19T12:06:04;23.30;99.90
15922;DHT22;8060;50.948;3.146;2022-08-19T12:08:33;23.10;99.90
15922;DHT22;8060;50.948;3.146;2022-08-19T12:11:01;23.00;99.90
15922;DHT22;8060;50.948;3.146;2022-08-19T12:13:30;23.00;99.90
15922;DHT22;8060;50.948;3.146;2022-08-19T12:15:58;22.90;99.90
15922;DHT22;8060;50.948;3.146;2022-08-19T12:18:27;22.90;99.90
15922;DHT22;8060;50.948;3.146;2022-08-19T12:20:56;22.90;99.90
15922;DHT22;8060;50.948;3.146;2022-08-19T12:23:23;22.90;99.90
15922;DHT22;8060;50.948;3.146;2022-08-19T12:25:52;23.00;99.90
15922;DHT22;8060;50.948;3.146;2022-08-19T12:28:23;23.20;99.90
15922;DHT22;8060;50.948;3.146;2022-08-19T12:30:51;23.60;99.90
15922;DHT22;8060;50.948;3.146;2022-08-19T12:33:20;23.80;99.90
15922;DHT22;8060;50.948;3.146;2022-08-19T12:35:53;24.00;99.90
15922;DHT22;8060;50.948;3.146;2022-08-19T12:38:21;24.10;99.90
15922;DHT22;8060;50.948;3.146;2022-08-19T12:40:51;24.20;99.90
15922;DHT22;8060;50.948;3.146;2022-08-19T12:43:25;24.30;99.90
15922;DHT22;8060;50.948;3.146;2022-08-19T12:45:53;24.30;99.90
15922;DHT22;8060;50.948;3.146;2022-08-19T12:48:22;24.40;99.90
15922;DHT22;8060;50.948;3.146;2022-08-19T12:51:06;24.40;99.90
15922;DHT22;8060;50.948;3.146;2022-08-19T12:53:35;24.30;99.90
15922;DHT22;8060;50.948;3.146;2022-08-19T12:56:05;24.20;99.90
15922;DHT22;8060;50.948;3.146;2022-08-19T12:58:38;24.30;99.90
15922;DHT22;8060;50.948;3.146;2022-08-19T13:01:17;24.60;99.90
15922;DHT22;8060;50.948;3.146;2022-08-19T13:03:49;24.80;99.90
15922;DHT22;8060;50.948;3.146;2022-08-19T13:06:20;24.90;99.90
15922;DHT22;8060;50.948;3.146;2022-08-19T13:08:48;24.90;99.90
15922;DHT22;8060;50.948;3.146;2022-08-19T13:11:18;24.90;99.90
15922;DHT22;8060;50.948;3.146;2022-08-19T13:13:48;24.90;99.90
15922;DHT22;8060;50.948;3.146;2022-08-19T13:16:18;24.90;99.90
15922;DHT22;8060;50.948;3.146;2022-08-19T13:18:49;24.90;99.90
15922;DHT22;8060;50.948;3.146;2022-08-19T13:21:21;24.80;99.90
15922;DHT22;8060;50.948;3.146;2022-08-19T13:23:50;24.80;99.90
15922;DHT22;8060;50.948;3.146;2022-08-19T13:26:19;24.80;99.90
15922;DHT22;8060;50.948;3.146;2022-08-19T13:28:47;24.90;99.90
15922;DHT22;8060;50.948;3.146;2022-08-19T13:31:34;25.20;99.90
15922;DHT22;8060;50.948;3.146;2022-08-19T13:34:27;25.70;99.90
15922;DHT22;8060;50.948;3.146;2022-08-19T13:36:58;26.10;99.90
15922;DHT22;8060;50.948;3.146;2022-08-19T13:39:26;26.20;99.90
15922;DHT22;8060;50.948;3.146;2022-08-19T13:41:54;26.20;99.90
15922;DHT22;8060;50.948;3.146;2022-08-19T13:44:22;26.50;99.90
15922;DHT22;8060;50.948;3.146;2022-08-19T13:46:51;26.80;99.90
15922;DHT22;8060;50.948;3.146;2022-08-19T13:49:20;26.90;99.90
15922;DHT22;8060;50.948;3.146;2022-08-19T13:51:50;27.30;99.90
15922;DHT22;8060;50.948;3.146;2022-08-19T13:54:19;27.70;99.90
15922;DHT22;8060;50.948;3.146;2022-08-19T13:56:48;28.00;99.90
15922;DHT22;8060;50.948;3.146;2022-08-19T13:59:16;28.50;99.90
15922;DHT22;8060;50.948;3.146;2022-08-19T14:01:44;28.20;99.90
15922;DHT22;8060;50.948;3.146;2022-08-19T14:04:12;27.70;99.90
15922;DHT22;8060;50.948;3.146;2022-08-19T14:06:40;27.40;99.90
15922;DHT22;8060;50.948;3.146;2022-08-19T14:09:08;27.40;99.90
15922;DHT22;8060;50.948;3.146;2022-08-19T14:11:38;27.30;99.90
15922;DHT22;8060;50.948;3.146;2022-08-19T14:14:06;27.00;99.90
15922;DHT22;8060;50.948;3.146;2022-08-19T14:16:39;26.90;99.90
15922;DHT22;8060;50.948;3.146;2022-08-19T14:19:07;26.90;99.90
15922;DHT22;8060;50.948;3.146;2022-08-19T14:21:35;26.80;99.90
15922;DHT22;8060;50.948;3.146;2022-08-19T14:24:07;26.80;99.90
15922;DHT22;8060;50.948;3.146;2022-08-19T14:26:37;26.90;99.90
15922;DHT22;8060;50.948;3.146;2022-08-19T14:29:05;26.80;99.90
15922;DHT22;8060;50.948;3.146;2022-08-19T14:31:33;26.70;99.90
15922;DHT22;8060;50.948;3.146;2022-08-19T14:34:01;26.60;99.90
15922;DHT22;8060;50.948;3.146;2022-08-19T14:36:29;26.40;99.90
15922;DHT22;8060;50.948;3.146;2022-08-19T14:39:04;26.30;99.90
15922;DHT22;8060;50.948;3.146;2022-08-19T14:41:33;26.20;99.90
15922;DHT22;8060;50.948;3.146;2022-08-19T14:44:03;26.00;99.90
15922;DHT22;8060;50.948;3.146;2022-08-19T14:46:31;25.90;99.90
15922;DHT22;8060;50.948;3.146;2022-08-19T14:48:59;25.80;99.90
15922;DHT22;8060;50.948;3.146;2022-08-19T14:51:35;25.60;99.90
15922;DHT22;8060;50.948;3.146;2022-08-19T14:54:03;25.60;99.90
15922;DHT22;8060;50.948;3.146;2022-08-19T14:56:31;25.60;99.90
15922;DHT22;8060;50.948;3.146;2022-08-19T14:58:59;25.50;99.90
15922;DHT22;8060;50.948;3.146;2022-08-19T15:01:29;25.50;99.90
15922;DHT22;8060;50.948;3.146;2022-08-19T15:03:58;25.50;99.90
15922;DHT22;8060;50.948;3.146;2022-08-19T15:06:27;25.50;99.90
15922;DHT22;8060;50.948;3.146;2022-08-19T15:08:55;25.40;99.90
15922;DHT22;8060;50.948;3.146;2022-08-19T15:11:30;25.50;99.90
15922;DHT22;8060;50.948;3.146;2022-08-19T15:13:59;25.40;99.90
15922;DHT22;8060;50.948;3.146;2022-08-19T15:16:29;25.50;99.90
15922;DHT22;8060;50.948;3.146;2022-08-19T15:18:58;25.50;99.90
15922;DHT22;8060;50.948;3.146;2022-08-19T15:21:28;25.50;99.90
15922;DHT22;8060;50.948;3.146;2022-08-19T15:23:58;25.40;99.90
15922;DHT22;8060;50.948;3.146;2022-08-19T15:26:27;25.40;99.90
15922;DHT22;8060;50.948;3.146;2022-08-19T15:28:59;25.30;99.90
15922;DHT22;8060;50.948;3.146;2022-08-19T15:31:29;25.30;99.90
15922;DHT22;8060;50.948;3.146;2022-08-19T15:34:02;25.40;99.90
15922;DHT22;8060;50.948;3.146;2022-08-19T15:36:32;25.40;99.90
15922;DHT22;8060;50.948;3.146;2022-08-19T15:39:02;25.40;99.90
15922;DHT22;8060;50.948;3.146;2022-08-19T15:41:32;25.30;99.90
15922;DHT22;8060;50.948;3.146;2022-08-19T15:44:04;25.10;99.90
15922;DHT22;8060;50.948;3.146;2022-08-19T15:46:38;25.10;99.90
15922;DHT22;8060;50.948;3.146;2022-08-19T15:49:07;25.10;99.90
15922;DHT22;8060;50.948;3.146;2022-08-19T15:51:36;25.00;99.90
15922;DHT22;8060;50.948;3.146;2022-08-19T15:54:07;24.90;99.90
15922;DHT22;8060;50.948;3.146;2022-08-19T15:56:36;24.90;99.90
15922;DHT22;8060;50.948;3.146;2022-08-19T15:59:27;24.90;99.90
15922;DHT22;8060;50.948;3.146;2022-08-19T16:02:15;24.90;99.90
15922;DHT22;8060;50.948;3.146;2022-08-19T16:05:04;24.90;99.90
15922;DHT22;8060;50.948;3.146;2022-08-19T16:07:50;24.90;99.90
15922;DHT22;8060;50.948;3.146;2022-08-19T16:10:18;24.90;99.90
15922;DHT22;8060;50.948;3.146;2022-08-19T16:12:54;24.90;99.90
15922;DHT22;8060;50.948;3.146;2022-08-19T16:15:23;24.90;99.90
15922;DHT22;8060;50.948;3.146;2022-08-19T16:17:55;24.90;99.90
15922;DHT22;8060;50.948;3.146;2022-08-19T16:20:24;24.80;99.90
15922;DHT22;8060;50.948;3.146;2022-08-19T16:22:54;24.90;99.90
15922;DHT22;8060;50.948;3.146;2022-08-19T16:25:24;24.90;99.90
15922;DHT22;8060;50.948;3.146;2022-08-19T16:27:55;24.80;99.90
15922;DHT22;8060;50.948;3.146;2022-08-19T16:30:35;24.80;99.90
15922;DHT22;8060;50.948;3.146;2022-08-19T16:33:05;24.80;99.90
15922;DHT22;8060;50.948;3.146;2022-08-19T16:35:33;24.80;99.90
15922;DHT22;8060;50.948;3.146;2022-08-19T16:38:01;24.70;99.90
15922;DHT22;8060;50.948;3.146;2022-08-19T16:40:30;24.60;99.90
15922;DHT22;8060;50.948;3.146;2022-08-19T16:42:59;24.50;99.90
15922;DHT22;8060;50.948;3.146;2022-08-19T16:45:28;24.60;99.90
15922;DHT22;8060;50.948;3.146;2022-08-19T16:47:57;24.60;99.90
15922;DHT22;8060;50.948;3.146;2022-08-19T16:50:26;24.50;99.90
15922;DHT22;8060;50.948;3.146;2022-08-19T16:53:15;24.50;99.90
15922;DHT22;8060;50.948;3.146;2022-08-19T16:55:45;24.50;99.90
15922;DHT22;8060;50.948;3.146;2022-08-19T16:58:16;24.50;99.90
15922;DHT22;8060;50.948;3.146;2022-08-19T17:00:45;24.50;99.90
15922;DHT22;8060;50.948;3.146;2022-08-19T17:03:15;24.40;99.90
15922;DHT22;8060;50.948;3.146;2022-08-19T17:05:46;24.40;99.90
15922;DHT22;8060;50.948;3.146;2022-08-19T17:08:15;24.40;99.90
15922;DHT22;8060;50.948;3.146;2022-08-19T17:10:45;24.30;99.90
15922;DHT22;8060;50.948;3.146;2022-08-19T17:13:33;24.20;99.90
15922;DHT22;8060;50.948;3.146;2022-08-19T17:16:02;24.20;99.90
15922;DHT22;8060;50.948;3.146;2022-08-19T17:18:30;24.10;99.90
15922;DHT22;8060;50.948;3.146;2022-08-19T17:21:01;24.10;99.90
15922;DHT22;8060;50.948;3.146;2022-08-19T17:23:29;24.10;99.90
15922;DHT22;8060;50.948;3.146;2022-08-19T17:26:10;24.20;99.90
15922;DHT22;8060;50.948;3.146;2022-08-19T17:28:44;24.20;99.90
15922;DHT22;8060;50.948;3.146;2022-08-19T17:31:13;24.10;99.90
15922;DHT22;8060;50.948;3.146;2022-08-19T17:33:41;24.00;99.90
15922;DHT22;8060;50.948;3.146;2022-08-19T17:36:15;23.90;99.90
15922;DHT22;8060;50.948;3.146;2022-08-19T17:38:44;23.80;99.90
15922;DHT22;8060;50.948;3.146;2022-08-19T17:41:12;23.80;99.90
15922;DHT22;8060;50.948;3.146;2022-08-19T17:43:40;23.80;99.90
15922;DHT22;8060;50.948;3.146;2022-08-19T17:46:11;23.80;99.90
15922;DHT22;8060;50.948;3.146;2022-08-19T17:48:45;23.80;99.90
15922;DHT22;8060;50.948;3.146;2022-08-19T17:51:22;23.70;99.90
15922;DHT22;8060;50.948;3.146;2022-08-19T17:53:52;23.70;99.90
15922;DHT22;8060;50.948;3.146;2022-08-19T17:56:21;23.70;99.90
15922;DHT22;8060;50.948;3.146;2022-08-19T17:58:51;23.60;99.90
15922;DHT22;8060;50.948;3.146;2022-08-19T18:01:28;23.50;99.90
15922;DHT22;8060;50.948;3.146;2022-08-19T18:04:16;23.60;99.90
15922;DHT22;8060;50.948;3.146;2022-08-19T18:06:47;23.60;99.90
15922;DHT22;8060;50.948;3.146;2022-08-19T18:09:21;23.60;99.90
15922;DHT22;8060;50.948;3.146;2022-08-19T18:11:51;23.60;99.90
15922;DHT22;8060;50.948;3.146;2022-08-19T18:14:20;23.40;99.90
15922;DHT22;8060;50.948;3.146;2022-08-19T18:17:00;23.40;99.90
15922;DHT22;8060;50.948;3.146;2022-08-19T18:19:31;23.30;99.90
15922;DHT22;8060;50.948;3.146;2022-08-19T18:22:11;23.20;99.90
15922;DHT22;8060;50.948;3.146;2022-08-19T18:24:40;23.20;99.90
15922;DHT22;8060;50.948;3.146;2022-08-19T18:27:12;23.20;99.90
15922;DHT22;8060;50.948;3.146;2022-08-19T18:29:40;23.20;99.90
15922;DHT22;8060;50.948;3.146;2022-08-19T18:32:09;23.20;99.90
15922;DHT22;8060;50.948;3.146;2022-08-19T18:34:41;23.30;99.90
15922;DHT22;8060;50.948;3.146;2022-08-19T18:37:12;23.20;99.90
15922;DHT22;8060;50.948;3.146;2022-08-19T18:39:44;23.10;99.90
15922;DHT22;8060;50.948;3.146;2022-08-19T18:42:33;23.00;99.90
15922;DHT22;8060;50.948;3.146;2022-08-19T18:45:18;23.10;99.90
15922;DHT22;8060;50.948;3.146;2022-08-19T18:48:09;23.00;99.90
15922;DHT22;8060;50.948;3.146;2022-08-19T18:50:56;23.00;99.90
15922;DHT22;8060;50.948;3.146;2022-08-19T18:53:30;23.00;99.90
15922;DHT22;8060;50.948;3.146;2022-08-19T18:56:00;22.90;99.90
15922;DHT22;8060;50.948;3.146;2022-08-19T18:58:31;22.80;99.90
15922;DHT22;8060;50.948;3.146;2022-08-19T19:01:04;22.70;99.90
15922;DHT22;8060;50.948;3.146;2022-08-19T19:03:38;22.70;99.90
15922;DHT22;8060;50.948;3.146;2022-08-19T19:06:08;22.80;99.90
15922;DHT22;8060;50.948;3.146;2022-08-19T19:08:38;22.80;99.90
15922;DHT22;8060;50.948;3.146;2022-08-19T19:11:07;22.70;99.90
15922;DHT22;8060;50.948;3.146;2022-08-19T19:13:35;22.70;99.90
15922;DHT22;8060;50.948;3.146;2022-08-19T19:16:06;22.70;99.90
15922;DHT22;8060;50.948;3.146;2022-08-19T19:18:38;22.70;99.90
15922;DHT22;8060;50.948;3.146;2022-08-19T19:21:06;22.70;99.90
15922;DHT22;8060;50.948;3.146;2022-08-19T19:23:36;22.70;99.90
15922;DHT22;8060;50.948;3.146;2022-08-19T19:26:08;22.70;99.90
15922;DHT22;8060;50.948;3.146;2022-08-19T19:28:37;22.70;99.90
15922;DHT22;8060;50.948;3.146;2022-08-19T19:31:12;22.70;99.90
15922;DHT22;8060;50.948;3.146;2022-08-19T19:33:41;22.70;99.90
15922;DHT22;8060;50.948;3.146;2022-08-19T19:36:11;22.60;99.90
15922;DHT22;8060;50.948;3.146;2022-08-19T19:38:39;22.60;99.90
15922;DHT22;8060;50.948;3.146;2022-08-19T19:41:18;22.50;99.90
15922;DHT22;8060;50.948;3.146;2022-08-19T19:43:49;22.50;99.90
15922;DHT22;8060;50.948;3.146;2022-08-19T19:46:38;22.50;99.90
15922;DHT22;8060;50.948;3.146;2022-08-19T19:49:08;22.40;99.90
15922;DHT22;8060;50.948;3.146;2022-08-19T19:51:36;22.40;99.90
15922;DHT22;8060;50.948;3.146;2022-08-19T19:54:08;22.40;99.90
15922;DHT22;8060;50.948;3.146;2022-08-19T19:56:41;22.40;99.90
15922;DHT22;8060;50.948;3.146;2022-08-19T19:59:11;22.30;99.90
15922;DHT22;8060;50.948;3.146;2022-08-19T20:01:39;22.30;99.90
15922;DHT22;8060;50.948;3.146;2022-08-19T20:04:13;22.30;99.90
15922;DHT22;8060;50.948;3.146;2022-08-19T20:06:41;22.30;99.90
15922;DHT22;8060;50.948;3.146;2022-08-19T20:09:09;22.30;99.90
15922;DHT22;8060;50.948;3.146;2022-08-19T20:11:44;22.20;99.90
15922;DHT22;8060;50.948;3.146;2022-08-19T20:14:15;22.20;99.90
15922;DHT22;8060;50.948;3.146;2022-08-19T20:16:44;22.10;99.90
15922;DHT22;8060;50.948;3.146;2022-08-19T20:19:14;22.10;99.90
15922;DHT22;8060;50.948;3.146;2022-08-19T20:21:44;22.00;99.90
15922;DHT22;8060;50.948;3.146;2022-08-19T20:24:20;21.90;99.90
15922;DHT22;8060;50.948;3.146;2022-08-19T20:26:51;21.80;99.90
15922;DHT22;8060;50.948;3.146;2022-08-19T20:29:20;21.80;99.90
15922;DHT22;8060;50.948;3.146;2022-08-19T20:32:08;21.70;99.90
15922;DHT22;8060;50.948;3.146;2022-08-19T20:34:36;21.70;99.90
15922;DHT22;8060;50.948;3.146;2022-08-19T20:37:05;21.60;99.90
15922;DHT22;8060;50.948;3.146;2022-08-19T20:39:35;21.60;99.90
15922;DHT22;8060;50.948;3.146;2022-08-19T20:42:05;21.50;99.90
15922;DHT22;8060;50.948;3.146;2022-08-19T20:44:34;21.50;99.90
15922;DHT22;8060;50.948;3.146;2022-08-19T20:47:03;21.50;99.90
15922;DHT22;8060;50.948;3.146;2022-08-19T20:49:32;21.30;99.90
15922;DHT22;8060;50.948;3.146;2022-08-19T20:52:01;21.30;99.90
15922;DHT22;8060;50.948;3.146;2022-08-19T20:54:30;21.30;99.90
15922;DHT22;8060;50.948;3.146;2022-08-19T20:56:59;21.30;99.90
15922;DHT22;8060;50.948;3.146;2022-08-19T20:59:30;21.20;99.90
15922;DHT22;8060;50.948;3.146;2022-08-19T21:01:59;21.20;99.90
15922;DHT22;8060;50.948;3.146;2022-08-19T21:04:27;21.10;99.90
15922;DHT22;8060;50.948;3.146;2022-08-19T21:06:55;21.10;99.90
15922;DHT22;8060;50.948;3.146;2022-08-19T21:09:23;21.10;99.90
15922;DHT22;8060;50.948;3.146;2022-08-19T21:11:52;21.10;99.90
15922;DHT22;8060;50.948;3.146;2022-08-19T21:14:20;21.10;99.90
15922;DHT22;8060;50.948;3.146;2022-08-19T21:16:50;21.00;99.90
15922;DHT22;8060;50.948;3.146;2022-08-19T21:19:18;20.90;99.90
15922;DHT22;8060;50.948;3.146;2022-08-19T21:21:50;20.80;99.90
15922;DHT22;8060;50.948;3.146;2022-08-19T21:24:18;20.80;99.90
15922;DHT22;8060;50.948;3.146;2022-08-19T21:26:46;20.70;99.90
15922;DHT22;8060;50.948;3.146;2022-08-19T21:29:17;20.70;99.90
15922;DHT22;8060;50.948;3.146;2022-08-19T21:31:46;20.50;99.90
15922;DHT22;8060;50.948;3.146;2022-08-19T21:34:16;20.50;99.90
15922;DHT22;8060;50.948;3.146;2022-08-19T21:36:44;20.50;99.90
15922;DHT22;8060;50.948;3.146;2022-08-19T21:39:12;20.50;99.90
15922;DHT22;8060;50.948;3.146;2022-08-19T21:41:40;20.50;99.90
15922;DHT22;8060;50.948;3.146;2022-08-19T21:44:09;20.50;99.90
15922;DHT22;8060;50.948;3.146;2022-08-19T21:46:37;20.50;99.90
15922;DHT22;8060;50.948;3.146;2022-08-19T21:49:05;20.40;99.90
15922;DHT22;8060;50.948;3.146;2022-08-19T21:51:35;20.40;99.90